Time;durP1;ratioP1;P1;durP2;ratioP2;P2;SDS_P1;SDS_P2;PMS_P1;PMS_P2;Temp;Humidity;BMP_temperature;BMP_pressure;BME280_temperature;BME280_humidity;BME280_pressure;Samples;Min_cycle;Max_cycle;Signal;HPM_P1;HPM_P2
2021/10/17 00:01:38;;;;;;;63.67;30.05;;;;;;;4.42;73.26;99044.03;5089771;28;20044;-77
2021/10/17 00:04:04;;;;;;;63.63;31.75;;;;;;;4.47;73.48;99046.84;5095416;28;20746;-77
2021/10/17 00:06:29;;;;;;;72.85;32.08;;;;;;;4.53;72.95;99041.53;5083806;28;20100;-76
2021/10/17 00:08:56;;;;;;;70.85;35.05;;;;;;;4.57;72.97;99043.50;5065997;28;20464;-77
2021/10/17 00:11:22;;;;;;;69.47;34.13;;;;;;;4.63;73.14;99044.44;5083762;28;20063;-76
2021/10/17 00:13:49;;;;;;;72.22;32.38;;;;;;;4.67;73.33;99048.34;5082274;28;20531;-77
2021/10/17 00:16:14;;;;;;;74.18;33.83;;;;;;;4.72;73.44;99058.47;5089721;28;20468;-83
2021/10/17 00:18:40;;;;;;;65.00;31.73;;;;;;;4.75;73.59;99050.63;5090250;28;20039;-79
2021/10/17 00:21:05;;;;;;;65.53;28.63;;;;;;;4.79;74.02;99048.28;5090492;28;20069;-79
2021/10/17 00:23:31;;;;;;;73.65;34.45;;;;;;;4.83;73.31;99051.31;5090133;28;20115;-79
2021/10/17 00:25:58;;;;;;;74.70;34.20;;;;;;;4.86;73.23;99045.41;5093724;28;20042;-79
2021/10/17 00:28:23;;;;;;;74.78;35.28;;;;;;;4.87;73.59;99038.91;5091502;28;20074;-79
2021/10/17 00:30:48;;;;;;;73.07;33.95;;;;;;;4.90;73.89;99046.56;5090998;28;20020;-80
2021/10/17 00:33:14;;;;;;;78.25;35.67;;;;;;;4.95;73.15;99049.38;5092514;28;20060;-79
2021/10/17 00:35:40;;;;;;;130.73;47.30;;;;;;;4.96;72.85;99047.47;5085223;28;20017;-79
2021/10/17 00:38:06;;;;;;;123.03;45.17;;;;;;;4.93;73.06;99046.06;5091320;28;20016;-79
2021/10/17 00:40:32;;;;;;;120.88;42.78;;;;;;;4.92;73.31;99047.94;5089651;28;20034;-78
2021/10/17 00:42:57;;;;;;;92.00;39.47;;;;;;;4.95;73.28;99049.38;5089557;28;20020;-78
2021/10/17 00:45:29;;;;;;;83.07;37.15;;;;;;;4.98;73.32;99048.88;5091138;28;20097;-79
2021/10/17 00:47:56;;;;;;;83.00;36.05;;;;;;;5.02;73.48;99052.78;5095635;28;20031;-79
2021/10/17 00:50:22;;;;;;;80.55;34.45;;;;;;;5.07;72.97;99050.13;5096967;28;20036;-79
2021/10/17 00:52:48;;;;;;;93.50;40.40;;;;;;;5.10;73.32;99051.53;5075721;28;20028;-79
2021/10/17 00:55:17;;;;;;;82.93;37.25;;;;;;;5.11;73.88;99052.34;5094836;28;20373;-78
2021/10/17 00:57:44;;;;;;;97.72;41.30;;;;;;;5.12;73.92;99043.97;5092706;28;20020;-80
2021/10/17 01:00:11;;;;;;;98.75;42.40;;;;;;;5.21;73.85;99045.22;5079584;28;20047;-78
2021/10/17 01:02:37;;;;;;;93.10;40.53;;;;;;;5.30;73.85;99037.44;5091003;28;20089;-79
2021/10/17 01:05:04;;;;;;;78.72;35.88;;;;;;;5.34;73.79;99044.06;5090837;28;20467;-79
2021/10/17 01:07:29;;;;;;;77.35;35.80;;;;;;;5.36;73.25;99039.19;5088874;28;20412;-79
2021/10/17 01:09:55;;;;;;;72.75;32.75;;;;;;;5.39;73.48;99032.41;5089473;28;20024;-77
2021/10/17 01:12:20;;;;;;;72.85;33.83;;;;;;;5.43;73.38;99040.91;5092797;28;20028;-78
2021/10/17 01:14:46;;;;;;;75.43;35.72;;;;;;;5.51;73.82;99035.88;5095317;28;20456;-79
2021/10/17 01:17:11;;;;;;;73.40;35.05;;;;;;;5.58;73.42;99035.69;5093425;28;20023;-79
2021/10/17 01:19:37;;;;;;;82.15;37.17;;;;;;;5.60;73.50;99025.38;5092683;28;20540;-78
2021/10/17 01:22:03;;;;;;;80.78;37.67;;;;;;;5.66;73.58;99031.75;5090575;28;20016;-79
2021/10/17 01:24:28;;;;;;;80.38;38.50;;;;;;;5.71;73.19;99020.09;5091511;28;20029;-79
2021/10/17 01:26:54;;;;;;;79.90;38.03;;;;;;;5.72;73.06;99029.91;5089875;28;20090;-79
2021/10/17 01:29:19;;;;;;;82.95;39.25;;;;;;;5.70;73.04;99013.00;5091770;28;20028;-79
2021/10/17 01:31:52;;;;;;;85.57;39.53;;;;;;;5.75;73.00;99019.34;5088621;28;20384;-79
2021/10/17 01:34:19;;;;;;;79.63;37.17;;;;;;;5.76;73.07;99020.19;5090459;28;20472;-80
2021/10/17 01:36:45;;;;;;;77.95;38.83;;;;;;;5.73;72.82;99018.75;5083495;28;20055;-79
2021/10/17 01:39:12;;;;;;;88.20;38.63;;;;;;;5.70;72.75;99010.28;5088576;28;20550;-79
2021/10/17 01:41:38;;;;;;;87.28;39.83;;;;;;;5.68;72.75;99018.72;5069067;28;20043;-79
2021/10/17 01:44:09;;;;;;;91.60;42.13;;;;;;;5.70;72.75;99010.28;5064477;28;20461;-78
2021/10/17 01:46:35;;;;;;;89.40;39.85;;;;;;;5.72;73.19;99013.59;5086354;28;20020;-80
2021/10/17 01:49:05;;;;;;;81.85;40.90;;;;;;;5.76;73.08;99014.72;5085073;28;20024;-79
2021/10/17 01:51:31;;;;;;;89.35;39.80;;;;;;;5.81;72.97;99010.16;5085629;28;20486;-79
2021/10/17 01:53:56;;;;;;;85.65;38.35;;;;;;;5.85;72.91;99006.94;5089608;28;20115;-79
2021/10/17 01:56:22;;;;;;;78.63;38.67;;;;;;;5.87;73.15;99011.09;5088055;28;20488;-77
2021/10/17 01:58:47;;;;;;;84.93;38.75;;;;;;;5.90;72.53;99012.47;5085500;28;20027;-78
2021/10/17 02:01:13;;;;;;;79.88;38.00;;;;;;;5.90;72.79;99018.75;5093387;28;20020;-79
2021/10/17 02:03:38;;;;;;;82.63;40.40;;;;;;;5.85;72.89;99005.06;5093042;28;20055;-78
2021/10/17 02:06:04;;;;;;;89.07;39.67;;;;;;;5.80;72.46;99002.28;5089517;28;20086;-78
2021/10/17 02:08:30;;;;;;;84.40;42.28;;;;;;;5.72;72.61;99016.31;5092793;28;20038;-78
2021/10/17 02:10:57;;;;;;;88.90;42.13;;;;;;;5.70;72.45;99004.84;5094219;28;20059;-78
2021/10/17 02:13:23;;;;;;;94.80;42.95;;;;;;;5.74;72.73;99009.53;5092107;28;20118;-78
2021/10/17 02:15:49;;;;;;;109.35;49.80;;;;;;;5.77;72.37;99003.59;5074654;28;20171;-78
2021/10/17 02:18:14;;;;;;;97.88;43.13;;;;;;;5.69;72.40;99008.63;5089547;28;20028;-78
2021/10/17 02:20:40;;;;;;;96.47;44.28;;;;;;;5.58;72.18;99008.50;5090373;28;20481;-79
2021/10/17 02:23:05;;;;;;;97.53;43.15;;;;;;;5.48;72.18;99005.63;5073424;28;20061;-77
2021/10/17 02:25:31;;;;;;;99.78;43.13;;;;;;;5.41;72.60;99000.34;5089890;28;20024;-78
2021/10/17 02:27:57;;;;;;;108.63;46.00;;;;;;;5.42;72.50;99007.44;5089395;28;20024;-78
2021/10/17 02:30:23;;;;;;;108.38;44.47;;;;;;;5.44;72.54;99002.56;5077902;28;20383;-79
2021/10/17 02:32:48;;;;;;;102.10;43.83;;;;;;;5.42;72.28;99009.34;5094518;28;20016;-78
2021/10/17 02:35:14;;;;;;;96.43;42.97;;;;;;;5.41;72.72;99005.78;5094631;28;20175;-78
2021/10/17 02:37:39;;;;;;;106.68;44.97;;;;;;;5.41;72.46;99013.13;5095213;28;20490;-78
2021/10/17 02:40:07;;;;;;;102.32;42.33;;;;;;;5.38;72.28;99002.75;5092739;28;20031;-78
2021/10/17 02:42:32;;;;;;;103.00;42.88;;;;;;;5.31;72.36;99002.91;5091634;28;20023;-79
2021/10/17 02:44:58;;;;;;;101.35;46.75;;;;;;;5.32;72.24;98993.66;5089361;28;20111;-79
2021/10/17 02:47:23;;;;;;;98.80;46.30;;;;;;;5.39;72.45;98996.25;5094054;28;20019;-78
2021/10/17 02:49:49;;;;;;;95.35;43.40;;;;;;;5.42;72.78;98993.03;5070243;28;20476;-78
2021/10/17 02:52:14;;;;;;;99.57;43.58;;;;;;;5.46;72.46;98991.47;5088544;28;20110;-78
2021/10/17 02:54:39;;;;;;;96.70;43.83;;;;;;;5.47;72.80;98988.47;5090716;28;20011;-78
2021/10/17 02:57:05;;;;;;;88.90;41.08;;;;;;;5.48;72.92;98995.56;5089141;28;20024;-78
2021/10/17 02:59:30;;;;;;;80.93;36.63;;;;;;;5.44;72.58;98983.53;5089169;28;20016;-78
2021/10/17 03:01:56;;;;;;;82.38;38.47;;;;;;;5.39;72.72;98990.81;5085685;28;20461;-78
2021/10/17 03:04:21;;;;;;;82.95;38.55;;;;;;;5.38;72.83;98992.69;5087935;28;20051;-78
2021/10/17 03:06:46;;;;;;;90.65;41.58;;;;;;;5.35;72.67;98999.47;5090178;28;20098;-79
2021/10/17 03:09:12;;;;;;;88.80;42.13;;;;;;;5.38;72.27;98994.59;5087419;28;20035;-78
2021/10/17 03:11:37;;;;;;;85.65;41.40;;;;;;;5.43;72.99;98994.69;5064655;28;20508;-78
2021/10/17 03:14:05;;;;;;;79.93;36.33;;;;;;;5.41;72.63;98994.91;5086732;28;20030;-78
2021/10/17 03:16:31;;;;;;;81.03;38.22;;;;;;;5.36;72.97;98992.94;5085286;28;20055;-78
2021/10/17 03:18:57;;;;;;;81.43;37.55;;;;;;;5.38;72.61;98997.31;5084439;28;20024;-77
2021/10/17 03:21:22;;;;;;;76.93;36.58;;;;;;;5.38;73.14;99000.03;5082921;28;20032;-78
2021/10/17 03:23:48;;;;;;;73.78;35.88;;;;;;;5.36;72.57;98992.94;5086297;28;20030;-78
2021/10/17 03:26:13;;;;;;;78.90;36.97;;;;;;;5.39;72.81;98997.06;5082603;28;20048;-78
2021/10/17 03:28:39;;;;;;;81.57;38.75;;;;;;;5.40;72.74;98995.16;5084041;28;20082;-78
2021/10/17 03:31:06;;;;;;;78.00;37.10;;;;;;;5.45;72.83;98995.25;5085700;28;20024;-78
2021/10/17 03:33:32;;;;;;;77.97;37.05;;;;;;;5.45;73.16;99000.69;5085821;28;20020;-78
2021/10/17 03:35:58;;;;;;;71.35;36.13;;;;;;;5.42;72.87;98993.84;5083955;28;20560;-78
2021/10/17 03:38:23;;;;;;;73.97;40.38;;;;;;;5.36;72.58;98987.50;5092757;28;20022;-78
2021/10/17 03:40:49;;;;;;;96.53;44.60;;;;;;;5.33;73.04;98987.16;5086516;28;20027;-78
2021/10/17 03:43:14;;;;;;;83.43;40.15;;;;;;;5.36;72.73;98975.78;5091063;28;20029;-78
2021/10/17 03:45:40;;;;;;;77.93;37.08;;;;;;;5.38;73.13;98989.16;5090236;28;20016;-79
2021/10/17 03:48:07;;;;;;;74.72;36.30;;;;;;;5.40;73.47;98981.56;5090945;28;20131;-78
2021/10/17 03:50:33;;;;;;;70.03;35.65;;;;;;;5.36;72.80;98986.66;5088390;28;20408;-78
2021/10/17 03:52:59;;;;;;;67.63;35.35;;;;;;;5.34;72.93;98989.66;5088513;28;20090;-79
2021/10/17 03:55:25;;;;;;;74.95;37.58;;;;;;;5.34;73.01;98984.22;5089155;28;20032;-78
2021/10/17 03:57:50;;;;;;;70.78;36.00;;;;;;;5.37;72.97;98982.88;5093259;28;20051;-78
2021/10/17 04:00:15;;;;;;;73.13;34.80;;;;;;;5.36;73.48;98990.22;5075979;28;20428;-78
2021/10/17 04:02:41;;;;;;;71.15;35.38;;;;;;;5.36;72.86;98983.94;5073582;28;20050;-78
2021/10/17 04:05:07;;;;;;;69.03;32.92;;;;;;;5.40;73.32;98989.72;5091740;28;20098;-78
2021/10/17 04:07:32;;;;;;;85.82;39.58;;;;;;;5.42;73.47;98988.41;5096873;28;20388;-78
2021/10/17 04:09:58;;;;;;;80.03;39.47;;;;;;;5.44;73.08;98982.72;5096549;28;20032;-78
2021/10/17 04:12:23;;;;;;;73.63;36.08;;;;;;;5.47;73.10;98987.66;5097192;28;20028;-78
2021/10/17 04:14:48;;;;;;;80.72;37.92;;;;;;;5.49;73.48;98990.97;5096307;28;20135;-77
2021/10/17 04:17:15;;;;;;;76.85;35.08;;;;;;;5.55;73.24;98986.41;5075782;28;20025;-76
2021/10/17 04:19:41;;;;;;;69.97;35.65;;;;;;;5.51;73.10;98981.47;5096664;28;20060;-77
2021/10/17 04:22:06;;;;;;;71.47;36.75;;;;;;;5.47;73.41;98979.50;5094394;28;20112;-77
2021/10/17 04:24:31;;;;;;;61.65;31.75;;;;;;;5.44;72.83;98975.38;5094443;28;20028;-77
2021/10/17 04:26:58;;;;;;;69.22;34.80;;;;;;;5.45;73.19;98970.78;5072034;28;20050;-77
2021/10/17 04:29:23;;;;;;;70.93;34.70;;;;;;;5.48;72.97;98983.88;5072021;28;20066;-78
2021/10/17 04:31:49;;;;;;;72.70;35.83;;;;;;;5.48;73.09;98989.31;5069294;28;20110;-77
2021/10/17 04:34:14;;;;;;;72.82;35.40;;;;;;;5.52;73.17;98979.56;5092392;28;20077;-77
2021/10/17 04:36:40;;;;;;;71.70;34.58;;;;;;;5.57;73.11;98984.25;5070662;28;20914;-77
2021/10/17 04:39:06;;;;;;;65.65;34.35;;;;;;;5.59;72.92;98987.56;5093019;28;20024;-78
2021/10/17 04:41:33;;;;;;;74.35;37.33;;;;;;;5.63;73.02;98984.06;5091426;28;20525;-78
2021/10/17 04:43:59;;;;;;;66.57;33.53;;;;;;;5.61;72.75;98990.84;5090912;28;20051;-77
2021/10/17 04:46:24;;;;;;;67.20;35.00;;;;;;;5.56;72.85;98982.63;5089444;28;20051;-77
2021/10/17 04:48:49;;;;;;;66.60;33.22;;;;;;;5.56;73.04;98988.06;5091255;28;20487;-77
2021/10/17 04:51:15;;;;;;;66.00;34.45;;;;;;;5.51;72.98;98989.63;5088194;28;20031;-78
2021/10/17 04:53:40;;;;;;;70.95;36.03;;;;;;;5.51;72.72;98992.34;5086171;28;20020;-78
2021/10/17 04:56:06;;;;;;;74.07;36.55;;;;;;;5.53;73.10;98991.28;5089760;28;20024;-77
2021/10/17 04:58:31;;;;;;;75.43;35.70;;;;;;;5.54;73.16;98987.47;5086526;28;20029;-77
2021/10/17 05:00:57;;;;;;;65.32;32.50;;;;;;;5.51;72.76;98992.34;5083390;28;20031;-77
2021/10/17 05:03:23;;;;;;;62.83;31.58;;;;;;;5.47;73.45;98987.66;5085491;28;20110;-77
2021/10/17 05:05:49;;;;;;;68.07;34.35;;;;;;;5.45;72.76;98987.09;5075328;28;20365;-76
2021/10/17 05:08:15;;;;;;;72.07;35.35;;;;;;;5.50;72.90;98990.69;5092788;28;20043;-77
2021/10/17 05:10:41;;;;;;;68.75;36.47;;;;;;;5.55;73.64;98995.38;5076695;28;20025;-78
2021/10/17 05:13:06;;;;;;;71.75;34.47;;;;;;;5.61;73.11;98991.66;5091361;28;20119;-77
2021/10/17 05:15:32;;;;;;;70.50;34.75;;;;;;;5.62;73.30;98993.31;5092531;28;20020;-77
2021/10/17 05:17:57;;;;;;;67.10;33.20;;;;;;;5.59;73.22;98996.53;5090996;28;20024;-76
2021/10/17 05:20:23;;;;;;;86.65;40.70;;;;;;;5.55;73.13;98997.28;5092965;28;20032;-77
2021/10/17 05:22:48;;;;;;;82.78;39.83;;;;;;;5.56;72.52;99004.38;5092930;28;20028;-77
2021/10/17 05:25:13;;;;;;;73.60;37.63;;;;;;;5.56;73.11;99010.63;5092074;28;20145;-77
2021/10/17 05:27:39;;;;;;;74.18;34.95;;;;;;;5.57;73.28;99011.47;5092591;28;20052;-77
2021/10/17 05:30:05;;;;;;;67.85;33.40;;;;;;;5.60;73.26;99010.97;5092681;28;20043;-77
2021/10/17 05:32:31;;;;;;;64.85;32.83;;;;;;;5.57;72.67;99009.56;5092554;28;20659;-77
2021/10/17 05:34:56;;;;;;;72.25;35.63;;;;;;;5.57;72.73;99014.19;5105507;28;20020;-77
2021/10/17 05:37:21;;;;;;;68.07;33.05;;;;;;;5.58;72.83;99024.81;5075067;28;20148;-77
2021/10/17 05:39:47;;;;;;;67.13;35.40;;;;;;;5.56;72.73;99020.72;5093333;28;20017;-77
2021/10/17 05:42:12;;;;;;;71.55;37.20;;;;;;;5.57;73.20;99020.44;5093167;28;20051;-77
2021/10/17 05:44:38;;;;;;;74.18;36.03;;;;;;;5.61;73.38;99021.59;5092937;28;20031;-77
2021/10/17 05:47:03;;;;;;;70.82;34.55;;;;;;;5.61;72.80;99027.03;5093315;28;20487;-77
2021/10/17 05:49:28;;;;;;;63.67;32.33;;;;;;;5.56;72.93;99024.22;5093306;28;20031;-77
2021/10/17 05:51:54;;;;;;;67.03;32.55;;;;;;;5.50;72.99;99028.78;5092767;28;20032;-76
2021/10/17 05:54:19;;;;;;;67.47;33.92;;;;;;;5.46;73.11;99019.47;5092990;28;20107;-77
2021/10/17 05:56:45;;;;;;;61.10;30.67;;;;;;;5.44;72.99;99018.91;5093255;28;20107;-76
2021/10/17 05:59:10;;;;;;;61.58;32.90;;;;;;;5.49;73.02;99018.16;5093045;28;20058;-76
2021/10/17 06:01:36;;;;;;;59.15;29.10;;;;;;;5.50;73.06;99019.81;5092624;28;20028;-77
2021/10/17 06:04:02;;;;;;;60.40;29.98;;;;;;;5.49;72.86;99023.59;5092664;28;20035;-77
2021/10/17 06:06:28;;;;;;;58.63;29.38;;;;;;;5.48;72.75;99020.06;5093070;28;20384;-76
2021/10/17 06:08:55;;;;;;;56.20;30.15;;;;;;;5.48;73.37;99021.97;5092776;28;20028;-76
2021/10/17 06:11:20;;;;;;;58.30;30.40;;;;;;;5.49;73.52;99023.59;5092704;28;20024;-76
2021/10/17 06:13:46;;;;;;;53.35;28.13;;;;;;;5.54;73.54;99028.28;5112196;28;20049;-77
2021/10/17 06:16:12;;;;;;;54.03;27.52;;;;;;;5.56;73.41;99017.97;5113025;28;20092;-77
2021/10/17 06:18:37;;;;;;;58.58;30.92;;;;;;;5.56;73.10;99028.88;5112455;28;20059;-77
2021/10/17 06:21:05;;;;;;;58.83;30.48;;;;;;;5.58;73.12;99021.28;5113170;28;20030;-77
2021/10/17 06:23:31;;;;;;;58.72;30.02;;;;;;;5.62;72.99;99027.88;5112780;28;20068;-77
2021/10/17 06:25:56;;;;;;;57.28;29.23;;;;;;;5.60;73.09;99033.56;5111227;28;20051;-77
2021/10/17 06:28:22;;;;;;;62.60;31.85;;;;;;;5.55;73.14;99038.91;5093414;28;20034;-77
2021/10/17 06:30:47;;;;;;;56.58;30.55;;;;;;;5.54;72.89;99036.44;5092556;28;20016;-77
2021/10/17 06:33:13;;;;;;;61.85;33.63;;;;;;;5.54;72.93;99041.91;5092285;28;20069;-77
2021/10/17 06:35:38;;;;;;;68.20;34.35;;;;;;;5.58;73.18;99043.84;5101082;28;20490;-77
2021/10/17 06:38:03;;;;;;;61.40;33.35;;;;;;;5.63;73.57;99045.84;5094126;28;20031;-77
2021/10/17 06:40:29;;;;;;;64.60;33.40;;;;;;;5.71;73.61;99037.25;5112761;28;20047;-77
2021/10/17 06:42:56;;;;;;;65.57;33.08;;;;;;;5.84;73.49;99041.53;5112312;28;20035;-77
2021/10/17 06:45:22;;;;;;;76.15;38.35;;;;;;;5.87;73.30;99046.47;5112426;28;20383;-77
2021/10/17 06:47:47;;;;;;;76.40;38.85;;;;;;;5.92;73.00;99045.72;5112418;28;20157;-76
2021/10/17 06:50:14;;;;;;;84.15;45.25;;;;;;;5.97;73.18;99046.59;5112389;28;20039;-77
2021/10/17 06:52:40;;;;;;;84.40;42.17;;;;;;;6.02;73.29;99053.22;5107946;28;20055;-77
2021/10/17 06:55:06;;;;;;;86.90;44.45;;;;;;;6.08;72.97;99057.66;5074200;28;20035;-77
2021/10/17 06:57:32;;;;;;;73.82;38.10;;;;;;;6.07;72.93;99053.28;5092236;28;20028;-77
2021/10/17 06:59:57;;;;;;;71.68;36.72;;;;;;;6.14;72.56;99056.66;5092259;28;20048;-77
2021/10/17 07:02:22;;;;;;;72.88;37.45;;;;;;;6.16;72.84;99053.66;5092153;28;20024;-77
2021/10/17 07:04:48;;;;;;;65.30;35.65;;;;;;;6.22;72.50;99056.22;5091902;28;20032;-76
2021/10/17 07:07:13;;;;;;;66.80;35.33;;;;;;;6.31;72.62;99055.78;5100911;28;20068;-77
2021/10/17 07:09:39;;;;;;;69.47;38.30;;;;;;;6.40;72.92;99051.53;5112754;28;20031;-77
2021/10/17 07:12:04;;;;;;;67.03;35.30;;;;;;;6.47;72.22;99057.59;5111997;28;20034;-77
2021/10/17 07:14:30;;;;;;;70.85;35.75;;;;;;;6.53;72.37;99058.47;5111838;28;20035;-77
2021/10/17 07:16:56;;;;;;;70.63;34.70;;;;;;;6.55;72.37;99056.31;5112142;28;20107;-77
2021/10/17 07:19:21;;;;;;;64.95;35.03;;;;;;;6.59;72.45;99062.09;5111994;28;20369;-77
2021/10/17 07:21:47;;;;;;;64.97;34.95;;;;;;;6.65;72.24;99058.38;5111822;28;20081;-76
2021/10/17 07:24:12;;;;;;;61.42;32.88;;;;;;;6.70;72.12;99072.88;5111904;28;20020;-77
2021/10/17 07:26:37;;;;;;;59.42;33.78;;;;;;;6.71;71.64;99062.81;5112047;28;20055;-78
2021/10/17 07:29:03;;;;;;;68.05;31.70;;;;;;;6.78;71.79;99068.03;5112106;28;20035;-77
2021/10/17 07:31:28;;;;;;;64.15;33.47;;;;;;;6.81;71.94;99070.25;5111212;28;20031;-77
2021/10/17 07:33:54;;;;;;;60.65;30.23;;;;;;;6.91;71.85;99064.06;5111610;28;20019;-77
2021/10/17 07:36:19;;;;;;;67.13;32.72;;;;;;;6.93;71.77;99065.47;5096632;28;20077;-78
2021/10/17 07:38:44;;;;;;;68.57;34.03;;;;;;;6.94;71.60;99069.84;5091669;28;20024;-77
2021/10/17 07:41:10;;;;;;;66.15;32.40;;;;;;;6.99;71.59;99067.16;5091448;28;20099;-77
2021/10/17 07:43:35;;;;;;;83.15;37.03;;;;;;;7.03;71.53;99062.03;5073441;28;20025;-77
2021/10/17 07:46:02;;;;;;;66.97;33.47;;;;;;;7.05;71.58;99067.22;5090899;28;20523;-77
2021/10/17 07:48:29;;;;;;;47.60;24.45;;;;;;;7.14;71.41;99066.47;5095420;28;20486;-77
2021/10/17 07:50:55;;;;;;;46.42;24.65;;;;;;;7.12;70.83;99065.94;5111808;28;20172;-77
2021/10/17 07:53:20;;;;;;;55.08;27.75;;;;;;;7.10;70.91;99064.53;5111666;28;20522;-78
2021/10/17 07:55:45;;;;;;;55.95;27.55;;;;;;;7.18;71.25;99065.97;5111662;28;20019;-77
2021/10/17 07:58:11;;;;;;;50.40;26.05;;;;;;;7.27;71.31;99067.16;5111870;28;20027;-83
2021/10/17 08:00:37;;;;;;;60.63;30.55;;;;;;;7.36;70.75;99062.88;5112031;28;20049;-79
2021/10/17 08:03:03;;;;;;;55.30;27.92;;;;;;;7.44;71.04;99062.38;5111645;28;20047;-81
2021/10/17 08:05:28;;;;;;;48.75;24.73;;;;;;;7.51;70.52;99062.16;5111660;28;20096;-80
2021/10/17 08:07:54;;;;;;;51.30;26.70;;;;;;;7.59;70.98;99064.41;5093223;28;20027;-80
2021/10/17 08:10:20;;;;;;;54.15;27.75;;;;;;;7.68;70.71;99067.47;5111824;28;20027;-80
2021/10/17 08:12:46;;;;;;;55.83;28.27;;;;;;;7.81;71.01;99070.84;5111417;28;20050;-79
2021/10/17 08:15:11;;;;;;;56.35;27.27;;;;;;;7.86;70.76;99068.97;5111214;28;20032;-80
2021/10/17 08:17:37;;;;;;;40.13;21.83;;;;;;;7.92;70.06;99066.25;5111368;28;20407;-83
2021/10/17 08:20:05;;;;;;;52.47;27.27;;;;;;;7.98;70.69;99066.03;5111058;28;20398;-80
2021/10/17 08:22:30;;;;;;;63.92;32.22;;;;;;;8.11;69.85;99063.91;5110925;28;20028;-79
2021/10/17 08:24:56;;;;;;;59.88;30.52;;;;;;;8.11;70.00;99072.94;5086368;28;20031;-79
2021/10/17 08:27:21;;;;;;;57.72;29.42;;;;;;;8.20;70.12;99081.44;5102049;28;20052;-79
2021/10/17 08:29:46;;;;;;;47.88;25.40;;;;;;;8.27;69.74;99078.47;5087837;28;20016;-79
2021/10/17 08:32:12;;;;;;;45.67;21.67;;;;;;;8.33;69.20;99080.97;5083013;28;20477;-72
2021/10/17 08:34:37;;;;;;;49.80;24.10;;;;;;;8.36;69.81;99079.63;5087660;28;20121;-76
2021/10/17 08:37:03;;;;;;;43.85;21.25;;;;;;;8.42;69.49;99074.97;5082522;28;20016;-75
2021/10/17 08:39:28;;;;;;;37.70;19.40;;;;;;;8.47;68.55;99078.59;5083623;28;20031;-76
2021/10/17 08:41:54;;;;;;;31.80;17.30;;;;;;;8.51;68.56;99075.34;5068859;28;20460;-76
2021/10/17 08:44:19;;;;;;;36.65;18.38;;;;;;;8.51;67.62;99075.34;5088111;28;20028;-77
2021/10/17 08:46:46;;;;;;;33.78;17.20;;;;;;;8.48;67.23;99072.06;5095829;28;20069;-76
2021/10/17 08:49:12;;;;;;;35.75;18.38;;;;;;;8.53;67.51;99071.25;5095216;28;20062;-76
2021/10/17 08:51:38;;;;;;;37.92;19.25;;;;;;;8.58;67.85;99074.00;5091520;28;20837;-77
2021/10/17 08:54:04;;;;;;;32.33;17.33;;;;;;;8.66;67.27;99075.38;5074438;28;20055;-75
2021/10/17 08:56:30;;;;;;;33.00;16.92;;;;;;;8.66;67.25;99077.31;5091644;28;20370;-75
2021/10/17 08:58:56;;;;;;;30.42;14.68;;;;;;;8.72;66.90;99068.03;5092018;28;20074;-76
2021/10/17 09:01:21;;;;;;;26.25;13.27;;;;;;;8.78;67.17;99070.50;5090726;28;20024;-76
2021/10/17 09:04:00;;;;;;;32.50;16.13;;;;;;;8.85;67.16;99063.97;5093128;28;20098;-75
2021/10/17 09:06:28;;;;;;;33.20;15.65;;;;;;;8.93;65.75;99068.91;5092395;28;20490;-77
2021/10/17 09:09:17;;;;;;;36.05;18.98;;;;;;;8.94;64.90;99071.38;5093804;28;20055;-76
2021/10/17 09:11:53;;;;;;;38.72;17.55;;;;;;;8.96;64.76;99071.09;5095976;28;20069;-76
2021/10/17 09:14:22;;;;;;;30.45;14.77;;;;;;;9.00;64.94;99071.38;5092073;28;20030;-76
2021/10/17 09:16:50;;;;;;;36.13;16.93;;;;;;;9.05;66.07;99072.19;5092665;28;20016;-76
2021/10/17 09:19:25;;;;;;;27.50;14.25;;;;;;;9.13;65.26;99070.84;5093315;28;20116;-72
2021/10/17 09:21:54;;;;;;;24.58;13.45;;;;;;;9.21;65.82;99073.03;5093644;28;20024;-76
2021/10/17 09:24:49;;;;;;;32.63;16.42;;;;;;;9.30;65.61;99067.03;5096975;28;20106;-77
2021/10/17 09:27:21;;;;;;;29.17;14.95;;;;;;;9.41;64.76;99074.16;5079139;28;20115;-76
2021/10/17 09:29:49;;;;;;;36.13;16.92;;;;;;;9.46;64.39;99067.84;5094272;28;20107;-76
2021/10/17 09:32:20;;;;;;;29.48;14.45;;;;;;;9.59;64.66;99066.47;5093671;28;20062;-76
2021/10/17 09:34:56;;;;;;;29.88;14.98;;;;;;;9.68;64.16;99070.31;5096042;28;20023;-76
2021/10/17 09:37:40;;;;;;;32.25;16.17;;;;;;;9.71;64.35;99060.75;5094302;28;20032;-76
2021/10/17 09:40:18;;;;;;;33.90;17.52;;;;;;;9.77;63.38;99068.66;5092158;28;20481;-76
2021/10/17 09:43:02;;;;;;;33.95;17.08;;;;;;;9.93;63.39;99063.97;5092400;28;20034;-77
2021/10/17 09:45:28;;;;;;;37.47;17.20;;;;;;;10.11;64.25;99064.50;5093334;28;20054;-77
2021/10/17 09:47:53;;;;;;;31.13;16.63;;;;;;;10.30;64.01;99059.22;5091772;28;20028;-78
2021/10/17 09:50:20;;;;;;;32.35;16.70;;;;;;;10.47;63.42;99058.06;5090843;28;20032;-78
2021/10/17 09:53:00;;;;;;;27.80;15.82;;;;;;;10.56;62.53;99056.41;5091304;28;20028;-78
2021/10/17 09:55:27;;;;;;;38.47;18.00;;;;;;;10.62;61.86;99057.19;5090854;28;20478;-78
2021/10/17 09:57:52;;;;;;;35.17;16.90;;;;;;;10.74;62.50;99045.91;5071837;28;20074;-78
2021/10/17 10:00:18;;;;;;;35.92;18.02;;;;;;;10.85;62.72;99045.56;5087903;28;20028;-78
2021/10/17 10:02:47;;;;;;;32.65;15.88;;;;;;;10.93;62.96;99054.28;5089960;28;20020;-77
2021/10/17 10:05:27;;;;;;;30.43;15.13;;;;;;;10.93;61.43;99057.84;5086310;28;20020;-76
2021/10/17 10:07:55;;;;;;;31.17;15.90;;;;;;;10.96;61.17;99056.47;5090570;28;20020;-77
2021/10/17 10:10:21;;;;;;;50.92;27.63;;;;;;;10.95;61.38;99052.09;5086736;28;20019;-78
2021/10/17 10:12:48;;;;;;;33.67;17.35;;;;;;;10.92;60.56;99050.72;5072185;28;20020;-76
2021/10/17 10:15:14;;;;;;;30.02;15.50;;;;;;;10.86;60.25;99049.09;5068691;28;20020;-76
2021/10/17 10:17:42;;;;;;;30.42;16.20;;;;;;;10.86;61.01;99052.69;5085037;28;20031;-76
2021/10/17 10:20:08;;;;;;;34.03;15.27;;;;;;;10.96;60.43;99051.78;5082735;28;20020;-77
2021/10/17 10:22:34;;;;;;;42.90;20.20;;;;;;;11.02;59.92;99055.31;5083275;28;20044;-77
2021/10/17 10:25:01;;;;;;;39.58;18.23;;;;;;;11.10;60.30;99053.91;5082607;28;20096;-77
2021/10/17 10:27:28;;;;;;;40.55;20.08;;;;;;;11.08;59.67;99050.63;5082232;28;20143;-78
2021/10/17 10:30:25;;;;;;;35.45;17.42;;;;;;;11.12;60.41;99057.19;5062276;28;20047;-77
2021/10/17 10:33:32;;;;;;;28.65;16.33;;;;;;;11.18;60.56;99053.31;5080344;28;20076;-77
2021/10/17 10:36:04;;;;;;;25.58;13.80;;;;;;;11.18;58.93;99056.06;5086869;28;20024;-77
2021/10/17 10:38:48;;;;;;;30.75;16.15;;;;;;;11.19;58.81;99049.47;5088961;28;20430;-77
2021/10/17 10:41:20;;;;;;;28.33;14.65;;;;;;;11.14;58.01;99047.56;5069905;28;20036;-77
2021/10/17 10:43:46;;;;;;;32.75;16.30;;;;;;;11.21;58.71;99044.47;5086616;28;20059;-78
2021/10/17 10:46:14;;;;;;;30.70;15.45;;;;;;;11.32;58.93;99042.50;5088316;28;20066;-77
2021/10/17 10:48:47;;;;;;;34.10;16.40;;;;;;;11.45;59.31;99046.50;5110015;28;20024;-78
2021/10/17 10:51:40;;;;;;;29.67;15.15;;;;;;;11.54;57.58;99044.78;5111983;28;20131;-77
2021/10/17 10:54:06;;;;;;;22.95;11.73;;;;;;;11.54;58.10;99047.53;5111810;28;20460;-77
2021/10/17 10:56:41;;;;;;;20.95;11.00;;;;;;;11.54;56.11;99028.28;5112254;28;20475;-78
2021/10/17 10:59:07;;;;;;;19.88;10.90;;;;;;;11.53;56.70;99028.56;5111856;28;20028;-78
2021/10/17 11:02:37;;;;;;;33.08;15.80;;;;;;;11.58;57.00;99034.84;5111788;28;20027;-77
2021/10/17 11:04:57;;;;;;;26.83;13.80;;;;;;;11.67;55.78;99025.97;5084622;28;20032;-77
2021/10/17 11:07:37;;;;;;;23.17;11.60;;;;;;;11.57;53.96;99032.38;5091606;28;20020;-77
2021/10/17 11:10:23;;;;;;;13.85;7.22;;;;;;;11.36;54.40;99021.59;5091580;28;20028;-77
2021/10/17 11:12:50;;;;;;;18.55;9.27;;;;;;;11.21;53.47;99028.00;5073154;28;20036;-77
2021/10/17 11:15:18;;;;;;;17.13;7.72;;;;;;;11.16;55.67;99028.06;5091370;28;20020;-77
2021/10/17 11:18:11;;;;;;;23.00;10.57;;;;;;;11.06;55.11;99023.44;5091233;28;20023;-77
2021/10/17 11:20:43;;;;;;;20.52;9.18;;;;;;;11.08;55.22;99020.44;5079097;28;20072;-77
2021/10/17 11:23:21;;;;;;;17.52;7.43;;;;;;;11.03;54.35;99018.53;5091028;28;20531;-78
2021/10/17 11:26:05;;;;;;;14.18;6.57;;;;;;;11.04;52.66;99011.13;5102971;28;20086;-76